Terminal Aerodrome Forecast
Issued by NWS

Home | Current Version | Previous Version | Text Only | Print | Product List | Glossary On
Versions: 1 2 3 4 5 6 7 8 9 10 11 12 13 14 15 16 17 18 19 20 21 22
000
FTUS43 KGRB 272300
TAFATW
TAF
KATW 272335Z 2800/2824 27003KT P6SM SKC
     FM280400 VRB03KT P6SM BKN250
     FM280900 21003KT P6SM SCT080 BKN120
     FM281300 18007KT 5SM -SN BR BKN030 OVC070
     FM281600 18007KT 2SM -SN BR OVC015=

USA.gov is the U.S. government's official web portal to all federal, state and local government web resources and services.